sensor_id;sensor_type;location;lat;lon;timestamp;temperature;humidity
3684;DHT22;1858;48.716;9.648;2023-12-29T00:01:15;10.10;1.00
3684;DHT22;1858;48.716;9.648;2023-12-29T00:04:01;10.20;1.00
3684;DHT22;1858;48.716;9.648;2023-12-29T00:06:47;10.20;1.00
3684;DHT22;1858;48.716;9.648;2023-12-29T00:09:34;10.20;1.00
3684;DHT22;1858;48.716;9.648;2023-12-29T00:12:21;10.30;1.00
3684;DHT22;1858;48.716;9.648;2023-12-29T00:15:08;10.30;1.00
3684;DHT22;1858;48.716;9.648;2023-12-29T00:17:55;10.20;1.00
3684;DHT22;1858;48.716;9.648;2023-12-29T00:20:41;10.10;1.00
3684;DHT22;1858;48.716;9.648;2023-12-29T00:23:47;10.00;1.00
3684;DHT22;1858;48.716;9.648;2023-12-29T00:26:34;10.00;1.00
3684;DHT22;1858;48.716;9.648;2023-12-29T00:29:20;10.00;1.00
3684;DHT22;1858;48.716;9.648;2023-12-29T00:32:07;10.00;1.00
3684;DHT22;1858;48.716;9.648;2023-12-29T00:34:53;10.00;1.00
3684;DHT22;1858;48.716;9.648;2023-12-29T00:37:59;10.10;1.00
3684;DHT22;1858;48.716;9.648;2023-12-29T00:40:46;10.00;1.00
3684;DHT22;1858;48.716;9.648;2023-12-29T00:43:32;10.00;1.00
3684;DHT22;1858;48.716;9.648;2023-12-29T00:46:18;10.10;1.00
3684;DHT22;1858;48.716;9.648;2023-12-29T00:49:04;10.00;1.00
3684;DHT22;1858;48.716;9.648;2023-12-29T00:51:51;10.00;1.00
3684;DHT22;1858;48.716;9.648;2023-12-29T00:54:37;10.00;1.00
3684;DHT22;1858;48.716;9.648;2023-12-29T00:57:23;10.00;1.00
3684;DHT22;1858;48.716;9.648;2023-12-29T01:00:29;10.00;1.00
3684;DHT22;1858;48.716;9.648;2023-12-29T01:03:15;10.10;1.00
3684;DHT22;1858;48.716;9.648;2023-12-29T01:06:01;10.00;1.00
3684;DHT22;1858;48.716;9.648;2023-12-29T01:08:48;10.00;1.00
3684;DHT22;1858;48.716;9.648;2023-12-29T01:11:34;10.00;1.00
3684;DHT22;1858;48.716;9.648;2023-12-29T01:14:21;10.00;1.00
3684;DHT22;1858;48.716;9.648;2023-12-29T01:17:07;10.10;1.00
3684;DHT22;1858;48.716;9.648;2023-12-29T01:19:54;10.10;1.00
3684;DHT22;1858;48.716;9.648;2023-12-29T01:22:40;10.10;1.00
3684;DHT22;1858;48.716;9.648;2023-12-29T01:25:26;10.10;1.00
3684;DHT22;1858;48.716;9.648;2023-12-29T01:28:13;10.10;1.00
3684;DHT22;1858;48.716;9.648;2023-12-29T01:30:59;10.10;1.00
3684;DHT22;1858;48.716;9.648;2023-12-29T01:33:45;10.10;1.00
3684;DHT22;1858;48.716;9.648;2023-12-29T01:36:32;10.10;1.00
3684;DHT22;1858;48.716;9.648;2023-12-29T01:39:18;10.10;1.00
3684;DHT22;1858;48.716;9.648;2023-12-29T01:42:05;10.20;1.00
3684;DHT22;1858;48.716;9.648;2023-12-29T01:44:51;10.20;1.00
3684;DHT22;1858;48.716;9.648;2023-12-29T01:47:39;10.20;1.00
3684;DHT22;1858;48.716;9.648;2023-12-29T01:50:26;10.20;1.00
3684;DHT22;1858;48.716;9.648;2023-12-29T01:53:12;10.10;1.00
3684;DHT22;1858;48.716;9.648;2023-12-29T01:55:59;10.10;1.00
3684;DHT22;1858;48.716;9.648;2023-12-29T01:58:46;10.10;1.00
3684;DHT22;1858;48.716;9.648;2023-12-29T02:01:34;10.20;1.00
3684;DHT22;1858;48.716;9.648;2023-12-29T02:04:40;10.10;1.00
3684;DHT22;1858;48.716;9.648;2023-12-29T02:07:26;10.00;1.00
3684;DHT22;1858;48.716;9.648;2023-12-29T02:10:16;10.00;1.00
3684;DHT22;1858;48.716;9.648;2023-12-29T02:13:03;10.10;1.00
3684;DHT22;1858;48.716;9.648;2023-12-29T02:15:54;10.10;1.00
3684;DHT22;1858;48.716;9.648;2023-12-29T02:18:43;10.30;1.00
3684;DHT22;1858;48.716;9.648;2023-12-29T02:21:32;10.40;99.90
3684;DHT22;1858;48.716;9.648;2023-12-29T02:24:18;10.40;99.90
3684;DHT22;1858;48.716;9.648;2023-12-29T02:30:39;10.60;99.90
3684;DHT22;1858;48.716;9.648;2023-12-29T02:33:27;10.60;99.90
3684;DHT22;1858;48.716;9.648;2023-12-29T02:36:34;10.50;99.90
3684;DHT22;1858;48.716;9.648;2023-12-29T02:39:23;10.50;99.90
3684;DHT22;1858;48.716;9.648;2023-12-29T02:42:09;10.40;99.90
3684;DHT22;1858;48.716;9.648;2023-12-29T02:44:56;10.50;99.90
3684;DHT22;1858;48.716;9.648;2023-12-29T02:47:42;10.60;99.90
3684;DHT22;1858;48.716;9.648;2023-12-29T02:50:29;10.60;99.90
3684;DHT22;1858;48.716;9.648;2023-12-29T02:53:15;10.60;99.90
3684;DHT22;1858;48.716;9.648;2023-12-29T02:56:02;10.60;99.90
3684;DHT22;1858;48.716;9.648;2023-12-29T02:58:48;10.50;99.90
3684;DHT22;1858;48.716;9.648;2023-12-29T03:01:37;10.50;99.90
3684;DHT22;1858;48.716;9.648;2023-12-29T03:04:23;10.60;99.90
3684;DHT22;1858;48.716;9.648;2023-12-29T03:07:10;10.60;99.90
3684;DHT22;1858;48.716;9.648;2023-12-29T03:09:56;10.50;99.90
3684;DHT22;1858;48.716;9.648;2023-12-29T03:12:43;10.50;99.90
3684;DHT22;1858;48.716;9.648;2023-12-29T03:15:29;10.50;99.90
3684;DHT22;1858;48.716;9.648;2023-12-29T03:18:16;10.50;99.90
3684;DHT22;1858;48.716;9.648;2023-12-29T03:21:02;10.50;99.90
3684;DHT22;1858;48.716;9.648;2023-12-29T03:23:48;10.40;99.90
3684;DHT22;1858;48.716;9.648;2023-12-29T03:26:35;10.40;99.90
3684;DHT22;1858;48.716;9.648;2023-12-29T03:29:21;10.60;99.90
3684;DHT22;1858;48.716;9.648;2023-12-29T03:32:08;10.60;99.90
3684;DHT22;1858;48.716;9.648;2023-12-29T03:34:54;10.60;99.90
3684;DHT22;1858;48.716;9.648;2023-12-29T03:37:41;10.50;99.90
3684;DHT22;1858;48.716;9.648;2023-12-29T03:40:27;10.60;99.90
3684;DHT22;1858;48.716;9.648;2023-12-29T03:43:14;10.50;99.90
3684;DHT22;1858;48.716;9.648;2023-12-29T03:46:00;10.60;99.90
3684;DHT22;1858;48.716;9.648;2023-12-29T03:48:46;10.60;99.90
3684;DHT22;1858;48.716;9.648;2023-12-29T03:51:33;10.60;99.90
3684;DHT22;1858;48.716;9.648;2023-12-29T03:54:20;10.70;99.90
3684;DHT22;1858;48.716;9.648;2023-12-29T03:57:06;10.70;99.90
3684;DHT22;1858;48.716;9.648;2023-12-29T03:59:53;10.70;99.90
3684;DHT22;1858;48.716;9.648;2023-12-29T04:02:39;10.60;99.90
3684;DHT22;1858;48.716;9.648;2023-12-29T04:05:26;10.60;99.90
3684;DHT22;1858;48.716;9.648;2023-12-29T04:08:32;10.60;99.90
3684;DHT22;1858;48.716;9.648;2023-12-29T04:11:18;10.60;99.90
3684;DHT22;1858;48.716;9.648;2023-12-29T04:14:06;10.60;99.90
3684;DHT22;1858;48.716;9.648;2023-12-29T04:16:53;10.60;99.90
3684;DHT22;1858;48.716;9.648;2023-12-29T04:19:40;10.60;99.90
3684;DHT22;1858;48.716;9.648;2023-12-29T04:22:27;10.70;99.90
3684;DHT22;1858;48.716;9.648;2023-12-29T04:25:13;10.70;99.90
3684;DHT22;1858;48.716;9.648;2023-12-29T04:28:19;10.70;99.90
3684;DHT22;1858;48.716;9.648;2023-12-29T04:31:05;10.80;99.90
3684;DHT22;1858;48.716;9.648;2023-12-29T04:33:52;10.80;99.90
3684;DHT22;1858;48.716;9.648;2023-12-29T04:36:38;10.80;99.90
3684;DHT22;1858;48.716;9.648;2023-12-29T04:39:25;10.90;99.90
3684;DHT22;1858;48.716;9.648;2023-12-29T04:42:11;10.90;99.90
3684;DHT22;1858;48.716;9.648;2023-12-29T04:44:57;10.80;99.90
3684;DHT22;1858;48.716;9.648;2023-12-29T04:47:44;10.80;99.90
3684;DHT22;1858;48.716;9.648;2023-12-29T04:50:30;10.70;99.90
3684;DHT22;1858;48.716;9.648;2023-12-29T04:53:16;10.50;99.90
3684;DHT22;1858;48.716;9.648;2023-12-29T04:56:03;10.40;1.00
3684;DHT22;1858;48.716;9.648;2023-12-29T04:58:51;10.40;1.00
3684;DHT22;1858;48.716;9.648;2023-12-29T05:01:38;10.40;1.00
3684;DHT22;1858;48.716;9.648;2023-12-29T05:04:24;10.40;1.00
3684;DHT22;1858;48.716;9.648;2023-12-29T05:07:11;10.40;1.00
3684;DHT22;1858;48.716;9.648;2023-12-29T05:09:57;10.30;1.00
3684;DHT22;1858;48.716;9.648;2023-12-29T05:12:44;10.30;1.00
3684;DHT22;1858;48.716;9.648;2023-12-29T05:15:30;10.30;1.00
3684;DHT22;1858;48.716;9.648;2023-12-29T05:18:16;10.30;1.00
3684;DHT22;1858;48.716;9.648;2023-12-29T05:21:03;10.30;1.00
3684;DHT22;1858;48.716;9.648;2023-12-29T05:23:49;10.30;1.00
3684;DHT22;1858;48.716;9.648;2023-12-29T05:26:36;10.40;1.00
3684;DHT22;1858;48.716;9.648;2023-12-29T05:29:41;10.40;1.00
3684;DHT22;1858;48.716;9.648;2023-12-29T05:32:28;10.40;1.00
3684;DHT22;1858;48.716;9.648;2023-12-29T05:35:33;10.50;1.00
3684;DHT22;1858;48.716;9.648;2023-12-29T05:38:20;10.50;1.00
3684;DHT22;1858;48.716;9.648;2023-12-29T05:41:06;10.60;1.00
3684;DHT22;1858;48.716;9.648;2023-12-29T05:43:53;10.60;1.00
3684;DHT22;1858;48.716;9.648;2023-12-29T05:46:39;10.40;1.00
3684;DHT22;1858;48.716;9.648;2023-12-29T05:49:45;10.40;1.00
3684;DHT22;1858;48.716;9.648;2023-12-29T05:52:31;10.20;1.00
3684;DHT22;1858;48.716;9.648;2023-12-29T05:55:18;10.20;1.00
3684;DHT22;1858;48.716;9.648;2023-12-29T05:58:05;10.30;1.00
3684;DHT22;1858;48.716;9.648;2023-12-29T06:00:52;10.20;1.00
3684;DHT22;1858;48.716;9.648;2023-12-29T06:03:38;10.30;1.00
3684;DHT22;1858;48.716;9.648;2023-12-29T06:06:24;10.20;1.00
3684;DHT22;1858;48.716;9.648;2023-12-29T06:09:10;10.20;1.00
3684;DHT22;1858;48.716;9.648;2023-12-29T06:11:57;10.10;1.00
3684;DHT22;1858;48.716;9.648;2023-12-29T06:14:43;10.00;1.00
3684;DHT22;1858;48.716;9.648;2023-12-29T06:17:49;10.10;1.00
3684;DHT22;1858;48.716;9.648;2023-12-29T06:20:35;10.00;1.00
3684;DHT22;1858;48.716;9.648;2023-12-29T06:23:22;9.90;1.00
3684;DHT22;1858;48.716;9.648;2023-12-29T06:26:20;9.90;35.00
3684;DHT22;1858;48.716;9.648;2023-12-29T06:29:08;10.00;22.40
3684;DHT22;1858;48.716;9.648;2023-12-29T06:31:54;10.00;7.30
3684;DHT22;1858;48.716;9.648;2023-12-29T06:34:41;10.10;1.00
3684;DHT22;1858;48.716;9.648;2023-12-29T06:37:28;10.20;1.00
3684;DHT22;1858;48.716;9.648;2023-12-29T06:40:15;10.20;1.00
3684;DHT22;1858;48.716;9.648;2023-12-29T06:43:01;10.20;1.00
3684;DHT22;1858;48.716;9.648;2023-12-29T06:45:48;10.20;1.00
3684;DHT22;1858;48.716;9.648;2023-12-29T06:48:34;10.30;1.00
3684;DHT22;1858;48.716;9.648;2023-12-29T06:51:22;10.30;1.00
3684;DHT22;1858;48.716;9.648;2023-12-29T06:54:09;10.40;1.00
3684;DHT22;1858;48.716;9.648;2023-12-29T06:56:55;10.40;1.00
3684;DHT22;1858;48.716;9.648;2023-12-29T06:59:42;10.40;1.00
3684;DHT22;1858;48.716;9.648;2023-12-29T07:02:28;10.30;1.00
3684;DHT22;1858;48.716;9.648;2023-12-29T07:05:15;10.30;1.00
3684;DHT22;1858;48.716;9.648;2023-12-29T07:08:01;10.30;1.00
3684;DHT22;1858;48.716;9.648;2023-12-29T07:10:47;10.40;1.00
3684;DHT22;1858;48.716;9.648;2023-12-29T07:13:36;10.30;1.00
3684;DHT22;1858;48.716;9.648;2023-12-29T07:16:42;10.10;1.00
3684;DHT22;1858;48.716;9.648;2023-12-29T07:19:28;10.10;1.00
3684;DHT22;1858;48.716;9.648;2023-12-29T07:22:16;10.10;1.00
3684;DHT22;1858;48.716;9.648;2023-12-29T07:25:02;10.10;1.30
3684;DHT22;1858;48.716;9.648;2023-12-29T07:27:49;10.10;15.80
3684;DHT22;1858;48.716;9.648;2023-12-29T07:30:35;10.10;39.20
3684;DHT22;1858;48.716;9.648;2023-12-29T07:33:21;10.10;56.80
3684;DHT22;1858;48.716;9.648;2023-12-29T07:36:09;10.10;94.70
3684;DHT22;1858;48.716;9.648;2023-12-29T07:38:55;10.10;99.90
3684;DHT22;1858;48.716;9.648;2023-12-29T07:41:43;10.00;99.90
3684;DHT22;1858;48.716;9.648;2023-12-29T07:44:30;10.00;66.10
3684;DHT22;1858;48.716;9.648;2023-12-29T07:47:16;10.00;89.90
3684;DHT22;1858;48.716;9.648;2023-12-29T07:50:03;10.00;99.90
3684;DHT22;1858;48.716;9.648;2023-12-29T07:52:49;10.20;99.90
3684;DHT22;1858;48.716;9.648;2023-12-29T07:55:54;10.20;89.00
3684;DHT22;1858;48.716;9.648;2023-12-29T07:58:40;10.30;83.70
3684;DHT22;1858;48.716;9.648;2023-12-29T08:01:27;10.30;38.90
3684;DHT22;1858;48.716;9.648;2023-12-29T08:04:13;10.40;34.50
3684;DHT22;1858;48.716;9.648;2023-12-29T08:06:59;10.40;14.90
3684;DHT22;1858;48.716;9.648;2023-12-29T08:09:45;10.40;8.70
3684;DHT22;1858;48.716;9.648;2023-12-29T08:12:32;10.40;1.00
3684;DHT22;1858;48.716;9.648;2023-12-29T08:15:21;10.40;14.30
3684;DHT22;1858;48.716;9.648;2023-12-29T08:18:08;10.40;9.90
3684;DHT22;1858;48.716;9.648;2023-12-29T08:20:54;10.50;22.90
3684;DHT22;1858;48.716;9.648;2023-12-29T08:23:41;10.50;3.30
3684;DHT22;1858;48.716;9.648;2023-12-29T08:26:27;10.60;1.00
3684;DHT22;1858;48.716;9.648;2023-12-29T08:29:14;10.60;1.00
3684;DHT22;1858;48.716;9.648;2023-12-29T08:32:01;10.60;1.00
3684;DHT22;1858;48.716;9.648;2023-12-29T08:34:47;10.70;1.00
3684;DHT22;1858;48.716;9.648;2023-12-29T08:37:33;10.80;1.00
3684;DHT22;1858;48.716;9.648;2023-12-29T08:40:19;10.70;1.00
3684;DHT22;1858;48.716;9.648;2023-12-29T08:43:05;10.70;1.00
3684;DHT22;1858;48.716;9.648;2023-12-29T08:45:52;10.80;1.00
3684;DHT22;1858;48.716;9.648;2023-12-29T08:48:38;10.90;1.00
3684;DHT22;1858;48.716;9.648;2023-12-29T08:51:24;11.10;1.00
3684;DHT22;1858;48.716;9.648;2023-12-29T08:54:11;11.10;1.00
3684;DHT22;1858;48.716;9.648;2023-12-29T08:56:57;11.20;1.00
3684;DHT22;1858;48.716;9.648;2023-12-29T08:59:43;11.50;1.00
3684;DHT22;1858;48.716;9.648;2023-12-29T09:02:30;11.60;1.00
3684;DHT22;1858;48.716;9.648;2023-12-29T09:05:16;11.80;1.00
3684;DHT22;1858;48.716;9.648;2023-12-29T09:08:03;11.90;1.00
3684;DHT22;1858;48.716;9.648;2023-12-29T09:10:49;12.00;1.00
3684;DHT22;1858;48.716;9.648;2023-12-29T09:13:36;12.10;1.00
3684;DHT22;1858;48.716;9.648;2023-12-29T09:16:22;12.30;99.90
3684;DHT22;1858;48.716;9.648;2023-12-29T09:19:08;12.40;99.90
3684;DHT22;1858;48.716;9.648;2023-12-29T09:21:55;12.40;99.90
3684;DHT22;1858;48.716;9.648;2023-12-29T09:24:42;12.40;99.90
3684;DHT22;1858;48.716;9.648;2023-12-29T09:27:28;12.40;99.90
3684;DHT22;1858;48.716;9.648;2023-12-29T09:30:14;12.40;99.90
3684;DHT22;1858;48.716;9.648;2023-12-29T09:33:00;12.40;99.90
3684;DHT22;1858;48.716;9.648;2023-12-29T09:35:47;12.40;99.90
3684;DHT22;1858;48.716;9.648;2023-12-29T09:38:35;12.40;99.90
3684;DHT22;1858;48.716;9.648;2023-12-29T09:41:24;12.50;99.90
3684;DHT22;1858;48.716;9.648;2023-12-29T09:44:31;12.40;99.90
3684;DHT22;1858;48.716;9.648;2023-12-29T09:47:23;12.50;99.90
3684;DHT22;1858;48.716;9.648;2023-12-29T09:50:11;12.60;99.90
3684;DHT22;1858;48.716;9.648;2023-12-29T09:53:00;12.60;99.90
3684;DHT22;1858;48.716;9.648;2023-12-29T09:55:51;12.50;99.90
3684;DHT22;1858;48.716;9.648;2023-12-29T09:58:38;12.50;99.90
3684;DHT22;1858;48.716;9.648;2023-12-29T10:01:25;12.40;99.90
3684;DHT22;1858;48.716;9.648;2023-12-29T10:04:12;12.50;99.90
3684;DHT22;1858;48.716;9.648;2023-12-29T10:07:02;12.40;99.90
3684;DHT22;1858;48.716;9.648;2023-12-29T10:09:57;12.30;99.90
3684;DHT22;1858;48.716;9.648;2023-12-29T10:12:47;12.40;99.90
3684;DHT22;1858;48.716;9.648;2023-12-29T10:21:34;12.50;99.90
3684;DHT22;1858;48.716;9.648;2023-12-29T10:24:22;12.40;99.90
3684;DHT22;1858;48.716;9.648;2023-12-29T10:27:09;12.40;99.90
3684;DHT22;1858;48.716;9.648;2023-12-29T10:29:55;12.30;99.90
3684;DHT22;1858;48.716;9.648;2023-12-29T10:32:41;12.30;99.90
3684;DHT22;1858;48.716;9.648;2023-12-29T10:36:00;12.40;99.90
3684;DHT22;1858;48.716;9.648;2023-12-29T10:39:05;12.50;99.90
3684;DHT22;1858;48.716;9.648;2023-12-29T10:41:41;12.60;99.90
3684;DHT22;1858;48.716;9.648;2023-12-29T10:44:27;12.60;99.90
3684;DHT22;1858;48.716;9.648;2023-12-29T10:47:13;12.70;99.90
3684;DHT22;1858;48.716;9.648;2023-12-29T10:50:00;12.70;99.90
3684;DHT22;1858;48.716;9.648;2023-12-29T10:52:49;12.80;99.90
3684;DHT22;1858;48.716;9.648;2023-12-29T10:55:35;12.80;99.90
3684;DHT22;1858;48.716;9.648;2023-12-29T10:58:21;12.70;99.90
3684;DHT22;1858;48.716;9.648;2023-12-29T11:01:13;12.70;99.90
3684;DHT22;1858;48.716;9.648;2023-12-29T11:04:01;12.70;99.90
3684;DHT22;1858;48.716;9.648;2023-12-29T11:06:48;12.70;99.90
3684;DHT22;1858;48.716;9.648;2023-12-29T11:09:36;12.60;99.90
3684;DHT22;1858;48.716;9.648;2023-12-29T11:12:23;12.60;99.90
3684;DHT22;1858;48.716;9.648;2023-12-29T11:15:09;12.50;99.90
3684;DHT22;1858;48.716;9.648;2023-12-29T11:17:57;12.40;99.90
3684;DHT22;1858;48.716;9.648;2023-12-29T11:20:46;12.20;99.90
3684;DHT22;1858;48.716;9.648;2023-12-29T11:23:32;12.30;99.90
3684;DHT22;1858;48.716;9.648;2023-12-29T11:26:19;12.40;99.90
3684;DHT22;1858;48.716;9.648;2023-12-29T11:29:08;12.60;99.90
3684;DHT22;1858;48.716;9.648;2023-12-29T11:31:56;12.70;99.90
3684;DHT22;1858;48.716;9.648;2023-12-29T11:34:46;12.70;99.90
3684;DHT22;1858;48.716;9.648;2023-12-29T11:37:52;12.70;99.90
3684;DHT22;1858;48.716;9.648;2023-12-29T11:40:44;12.70;99.90
3684;DHT22;1858;48.716;9.648;2023-12-29T11:43:29;12.70;99.90
3684;DHT22;1858;48.716;9.648;2023-12-29T11:46:38;12.70;99.90
3684;DHT22;1858;48.716;9.648;2023-12-29T11:49:26;12.80;99.90
3684;DHT22;1858;48.716;9.648;2023-12-29T11:52:17;12.70;99.90
3684;DHT22;1858;48.716;9.648;2023-12-29T11:55:12;12.80;99.90
3684;DHT22;1858;48.716;9.648;2023-12-29T11:57:58;13.00;99.90
3684;DHT22;1858;48.716;9.648;2023-12-29T12:00:46;12.90;99.90
3684;DHT22;1858;48.716;9.648;2023-12-29T12:03:36;12.90;99.90
3684;DHT22;1858;48.716;9.648;2023-12-29T12:06:37;13.00;99.90
3684;DHT22;1858;48.716;9.648;2023-12-29T12:09:24;13.20;99.90
3684;DHT22;1858;48.716;9.648;2023-12-29T12:12:10;13.30;99.90
3684;DHT22;1858;48.716;9.648;2023-12-29T12:14:56;13.40;99.90
3684;DHT22;1858;48.716;9.648;2023-12-29T12:17:43;13.40;99.90
3684;DHT22;1858;48.716;9.648;2023-12-29T12:20:32;13.30;99.90
3684;DHT22;1858;48.716;9.648;2023-12-29T12:23:20;13.40;99.90
3684;DHT22;1858;48.716;9.648;2023-12-29T12:26:06;13.20;99.80
3684;DHT22;1858;48.716;9.648;2023-12-29T12:29:13;13.30;99.90
3684;DHT22;1858;48.716;9.648;2023-12-29T12:32:00;13.30;99.90
3684;DHT22;1858;48.716;9.648;2023-12-29T12:34:46;13.30;99.90
3684;DHT22;1858;48.716;9.648;2023-12-29T12:37:32;13.30;96.30
3684;DHT22;1858;48.716;9.648;2023-12-29T12:40:26;13.20;99.60
3684;DHT22;1858;48.716;9.648;2023-12-29T12:43:16;12.90;99.90
3684;DHT22;1858;48.716;9.648;2023-12-29T12:46:02;12.80;99.90
3684;DHT22;1858;48.716;9.648;2023-12-29T12:48:49;12.80;99.90
3684;DHT22;1858;48.716;9.648;2023-12-29T12:51:36;12.70;99.90
3684;DHT22;1858;48.716;9.648;2023-12-29T12:54:41;12.80;99.90
3684;DHT22;1858;48.716;9.648;2023-12-29T12:57:27;12.80;99.90
3684;DHT22;1858;48.716;9.648;2023-12-29T13:00:14;13.00;99.90
3684;DHT22;1858;48.716;9.648;2023-12-29T13:03:01;13.00;99.90
3684;DHT22;1858;48.716;9.648;2023-12-29T13:05:47;13.10;99.90
3684;DHT22;1858;48.716;9.648;2023-12-29T13:08:34;13.20;99.90
3684;DHT22;1858;48.716;9.648;2023-12-29T13:11:21;13.20;99.90
3684;DHT22;1858;48.716;9.648;2023-12-29T13:14:09;13.20;87.50
3684;DHT22;1858;48.716;9.648;2023-12-29T13:16:55;13.00;92.30
3684;DHT22;1858;48.716;9.648;2023-12-29T13:19:42;12.90;99.90
3684;DHT22;1858;48.716;9.648;2023-12-29T13:22:28;12.90;99.90
3684;DHT22;1858;48.716;9.648;2023-12-29T13:25:25;12.90;95.70
3684;DHT22;1858;48.716;9.648;2023-12-29T13:28:14;12.80;80.80
3684;DHT22;1858;48.716;9.648;2023-12-29T13:31:01;12.80;90.70
3684;DHT22;1858;48.716;9.648;2023-12-29T13:34:02;12.80;76.30
3684;DHT22;1858;48.716;9.648;2023-12-29T13:37:07;12.80;77.30
3684;DHT22;1858;48.716;9.648;2023-12-29T13:42:33;12.90;84.50
3684;DHT22;1858;48.716;9.648;2023-12-29T13:45:21;12.80;65.40
3684;DHT22;1858;48.716;9.648;2023-12-29T13:48:08;12.80;73.20
3684;DHT22;1858;48.716;9.648;2023-12-29T13:50:56;12.50;73.10
3684;DHT22;1858;48.716;9.648;2023-12-29T13:53:42;12.60;92.70
3684;DHT22;1858;48.716;9.648;2023-12-29T13:56:54;12.60;84.10
3684;DHT22;1858;48.716;9.648;2023-12-29T13:59:40;12.80;94.20
3684;DHT22;1858;48.716;9.648;2023-12-29T14:02:32;12.80;64.30
3684;DHT22;1858;48.716;9.648;2023-12-29T14:05:43;12.90;59.70
3684;DHT22;1858;48.716;9.648;2023-12-29T14:08:32;12.80;30.10
3684;DHT22;1858;48.716;9.648;2023-12-29T14:11:20;12.90;35.60
3684;DHT22;1858;48.716;9.648;2023-12-29T14:14:08;12.80;24.70
3684;DHT22;1858;48.716;9.648;2023-12-29T14:16:55;12.80;18.70
3684;DHT22;1858;48.716;9.648;2023-12-29T14:20:00;12.80;13.90
3684;DHT22;1858;48.716;9.648;2023-12-29T14:22:48;12.70;7.50
3684;DHT22;1858;48.716;9.648;2023-12-29T14:25:40;12.70;7.20
3684;DHT22;1858;48.716;9.648;2023-12-29T14:28:23;12.70;6.70
3684;DHT22;1858;48.716;9.648;2023-12-29T14:31:09;12.60;1.00
3684;DHT22;1858;48.716;9.648;2023-12-29T14:33:56;12.60;1.00
3684;DHT22;1858;48.716;9.648;2023-12-29T14:36:43;12.50;1.00
3684;DHT22;1858;48.716;9.648;2023-12-29T14:39:52;12.40;1.00
3684;DHT22;1858;48.716;9.648;2023-12-29T14:42:38;12.30;1.00
3684;DHT22;1858;48.716;9.648;2023-12-29T14:45:26;12.20;1.00
3684;DHT22;1858;48.716;9.648;2023-12-29T14:48:14;12.10;1.00
3684;DHT22;1858;48.716;9.648;2023-12-29T14:51:01;12.00;1.00
3684;DHT22;1858;48.716;9.648;2023-12-29T14:53:49;12.00;1.00
3684;DHT22;1858;48.716;9.648;2023-12-29T14:56:36;11.90;1.00
3684;DHT22;1858;48.716;9.648;2023-12-29T14:59:22;11.90;1.00
3684;DHT22;1858;48.716;9.648;2023-12-29T15:02:08;11.80;1.00
3684;DHT22;1858;48.716;9.648;2023-12-29T15:04:55;11.60;1.00
3684;DHT22;1858;48.716;9.648;2023-12-29T15:07:41;11.60;1.00
3684;DHT22;1858;48.716;9.648;2023-12-29T15:10:27;11.50;1.00
3684;DHT22;1858;48.716;9.648;2023-12-29T15:13:14;11.50;1.00
3684;DHT22;1858;48.716;9.648;2023-12-29T15:16:02;11.50;1.00
3684;DHT22;1858;48.716;9.648;2023-12-29T15:18:48;11.50;1.00
3684;DHT22;1858;48.716;9.648;2023-12-29T15:21:35;11.40;1.00
3684;DHT22;1858;48.716;9.648;2023-12-29T15:24:21;11.40;1.00
3684;DHT22;1858;48.716;9.648;2023-12-29T15:27:07;11.30;1.00
3684;DHT22;1858;48.716;9.648;2023-12-29T15:29:53;11.20;1.00
3684;DHT22;1858;48.716;9.648;2023-12-29T15:32:40;11.10;1.00
3684;DHT22;1858;48.716;9.648;2023-12-29T15:35:26;11.10;1.00
3684;DHT22;1858;48.716;9.648;2023-12-29T15:38:13;11.10;1.00
3684;DHT22;1858;48.716;9.648;2023-12-29T15:40:59;11.10;1.00
3684;DHT22;1858;48.716;9.648;2023-12-29T15:43:46;11.00;1.00
3684;DHT22;1858;48.716;9.648;2023-12-29T15:46:32;11.00;1.00
3684;DHT22;1858;48.716;9.648;2023-12-29T15:49:19;10.80;1.00
3684;DHT22;1858;48.716;9.648;2023-12-29T15:52:06;10.80;1.00
3684;DHT22;1858;48.716;9.648;2023-12-29T15:54:52;10.80;1.00
3684;DHT22;1858;48.716;9.648;2023-12-29T15:57:39;10.70;1.00
3684;DHT22;1858;48.716;9.648;2023-12-29T16:00:25;10.60;1.00
3684;DHT22;1858;48.716;9.648;2023-12-29T16:03:11;10.50;1.00
3684;DHT22;1858;48.716;9.648;2023-12-29T16:05:58;10.60;1.00
3684;DHT22;1858;48.716;9.648;2023-12-29T16:08:45;10.40;1.00
3684;DHT22;1858;48.716;9.648;2023-12-29T16:11:32;10.40;1.00
3684;DHT22;1858;48.716;9.648;2023-12-29T16:14:19;10.30;1.00
3684;DHT22;1858;48.716;9.648;2023-12-29T16:17:06;10.30;1.00
3684;DHT22;1858;48.716;9.648;2023-12-29T16:19:52;10.30;1.00
3684;DHT22;1858;48.716;9.648;2023-12-29T16:22:38;10.20;1.00
3684;DHT22;1858;48.716;9.648;2023-12-29T16:25:25;10.10;1.00
3684;DHT22;1858;48.716;9.648;2023-12-29T16:28:11;10.10;1.00
3684;DHT22;1858;48.716;9.648;2023-12-29T16:30:57;10.10;1.00
3684;DHT22;1858;48.716;9.648;2023-12-29T16:33:44;10.00;1.00
3684;DHT22;1858;48.716;9.648;2023-12-29T16:36:30;10.00;1.00
3684;DHT22;1858;48.716;9.648;2023-12-29T16:39:16;9.90;1.30
3684;DHT22;1858;48.716;9.648;2023-12-29T16:42:03;9.90;5.90
3684;DHT22;1858;48.716;9.648;2023-12-29T16:44:49;9.90;4.30
3684;DHT22;1858;48.716;9.648;2023-12-29T16:47:36;9.90;6.70
3684;DHT22;1858;48.716;9.648;2023-12-29T16:50:23;9.80;8.00
3684;DHT22;1858;48.716;9.648;2023-12-29T16:53:09;9.70;10.80
3684;DHT22;1858;48.716;9.648;2023-12-29T16:55:55;9.70;13.00
3684;DHT22;1858;48.716;9.648;2023-12-29T16:58:43;9.70;17.70
3684;DHT22;1858;48.716;9.648;2023-12-29T17:01:29;9.70;19.10
3684;DHT22;1858;48.716;9.648;2023-12-29T17:04:15;9.80;20.10
3684;DHT22;1858;48.716;9.648;2023-12-29T17:07:01;9.60;22.90
3684;DHT22;1858;48.716;9.648;2023-12-29T17:09:48;9.60;26.70
3684;DHT22;1858;48.716;9.648;2023-12-29T17:12:34;9.60;28.20
3684;DHT22;1858;48.716;9.648;2023-12-29T17:15:20;9.50;32.10
3684;DHT22;1858;48.716;9.648;2023-12-29T17:18:07;9.50;33.20
3684;DHT22;1858;48.716;9.648;2023-12-29T17:20:53;9.60;36.20
3684;DHT22;1858;48.716;9.648;2023-12-29T17:23:39;9.60;34.70
3684;DHT22;1858;48.716;9.648;2023-12-29T17:26:28;9.60;35.00
3684;DHT22;1858;48.716;9.648;2023-12-29T17:29:15;9.70;32.00
3684;DHT22;1858;48.716;9.648;2023-12-29T17:32:01;9.60;34.40
3684;DHT22;1858;48.716;9.648;2023-12-29T17:34:48;9.40;39.00
3684;DHT22;1858;48.716;9.648;2023-12-29T17:37:35;9.50;47.10
3684;DHT22;1858;48.716;9.648;2023-12-29T17:40:21;9.40;50.40
3684;DHT22;1858;48.716;9.648;2023-12-29T17:43:07;9.40;55.00
3684;DHT22;1858;48.716;9.648;2023-12-29T17:45:54;9.40;62.30
3684;DHT22;1858;48.716;9.648;2023-12-29T17:48:40;9.40;62.60
3684;DHT22;1858;48.716;9.648;2023-12-29T17:51:26;9.50;64.40
3684;DHT22;1858;48.716;9.648;2023-12-29T17:54:14;9.50;69.30
3684;DHT22;1858;48.716;9.648;2023-12-29T17:57:01;9.40;78.80
3684;DHT22;1858;48.716;9.648;2023-12-29T17:59:48;9.30;87.50
3684;DHT22;1858;48.716;9.648;2023-12-29T18:02:34;9.20;95.30
3684;DHT22;1858;48.716;9.648;2023-12-29T18:05:20;9.30;99.90
3684;DHT22;1858;48.716;9.648;2023-12-29T18:08:25;9.30;99.90
3684;DHT22;1858;48.716;9.648;2023-12-29T18:11:12;9.20;99.90
3684;DHT22;1858;48.716;9.648;2023-12-29T18:13:58;9.20;99.90
3684;DHT22;1858;48.716;9.648;2023-12-29T18:16:45;9.20;99.90
3684;DHT22;1858;48.716;9.648;2023-12-29T18:19:31;9.20;99.90
3684;DHT22;1858;48.716;9.648;2023-12-29T18:22:17;9.10;99.90
3684;DHT22;1858;48.716;9.648;2023-12-29T18:25:04;9.10;99.90
3684;DHT22;1858;48.716;9.648;2023-12-29T18:27:51;9.20;99.90
3684;DHT22;1858;48.716;9.648;2023-12-29T18:30:38;9.20;99.90
3684;DHT22;1858;48.716;9.648;2023-12-29T18:33:24;9.10;99.90
3684;DHT22;1858;48.716;9.648;2023-12-29T18:36:10;9.00;99.90
3684;DHT22;1858;48.716;9.648;2023-12-29T18:38:57;9.00;99.90